| time (UTC) | temp C | wind direction | speed KPH | gust KPH | rain 1hr cm | rain 24hr cm | rain mn cm | humidity % | barometer mb |
| 20260510224615 | 24 | 355 | 0.0 | 0.0 | 0.00 | 0.00 | 0.00 | 77 | 1035.7 |
| 20260510224112 | 24 | 355 | 0.0 | 0.0 | 0.00 | 0.00 | 0.00 | 76 | 1035.8 |
| 20260510223610 | 24 | 355 | 0.0 | 0.0 | 0.00 | 0.00 | 0.00 | 77 | 1035.7 |
| 20260510223107 | 24 | 355 | 0.0 | 0.0 | 0.00 | 0.00 | 0.00 | 76 | 1035.9 |
| 20260510222604 | 24 | 356 | 0.0 | 0.0 | 0.00 | 0.00 | 0.00 | 75 | 1035.9 |
| 20260510222101 | 25 | 356 | 0.0 | 0.0 | 0.00 | 0.00 | 0.00 | 74 | 1035.8 |
| 20260510221601 | 25 | 355 | 0.0 | 0.0 | 0.00 | 0.00 | 0.00 | 72 | 1035.8 |
| 20260510221058 | 25 | 16 | 0.0 | 0.0 | 0.00 | 0.00 | 0.00 | 72 | 1036.0 |
| 20260510220555 | 25 | 19 | 0.0 | 0.0 | 0.00 | 0.00 | 0.00 | 71 | 1035.8 |
| 20260510220050 | 26 | 21 | 0.0 | 0.0 | 0.00 | 0.00 | 0.00 | 70 | 1036.0 |
| 20260510215548 | 27 | 26 | 0.0 | 0.0 | 0.00 | 0.00 | 0.00 | 66 | 1035.9 |
| 20260510215046 | 27 | 23 | 0.0 | 0.0 | 0.00 | 0.00 | 0.00 | 64 | 1035.9 |
| 20260510214543 | 26 | 349 | 1.6 | 1.6 | 0.00 | 0.00 | 0.00 | 69 | 1035.8 |
| 20260510214039 | 27 | 20 | 0.0 | 0.0 | 0.00 | 0.00 | 0.00 | 65 | 1035.9 |
| 20260510213536 | 26 | 26 | 0.0 | 0.0 | 0.00 | 0.00 | 0.00 | 65 | 1035.8 |
| 20260510213032 | 26 | 7 | 0.0 | 0.0 | 0.00 | 0.00 | 0.00 | 71 | 1035.9 |
| 20260510212529 | 25 | 36 | 0.0 | 0.0 | 0.00 | 0.00 | 0.00 | 70 | 1036.0 |
| 20260510212026 | 24 | 25 | 0.0 | 0.0 | 0.00 | 0.00 | 0.00 | 73 | 1035.6 |
| 20260510211523 | 25 | 347 | 0.0 | 0.0 | 0.00 | 0.00 | 0.00 | 71 | 1035.9 |
| 20260510211017 | 25 | 50 | 0.0 | 0.0 | 0.00 | 0.00 | 0.00 | 67 | 1035.9 |
| 20260510210514 | 25 | 40 | 0.0 | 0.0 | 0.00 | 0.00 | 0.00 | 74 | 1035.7 |
| 20260510210009 | 25 | 146 | 0.0 | 0.0 | 0.00 | 0.00 | 0.00 | 69 | 1035.8 |
| 20260510205508 | 25 | 34 | 0.0 | 0.0 | 0.00 | 0.00 | 0.00 | 72 | 1036.0 |
| 20260510205004 | 24 | 1 | 0.0 | 1.6 | 0.00 | 0.00 | 0.00 | 73 | 1035.9 |
| 20260510204500 | 25 | 9 | 3.2 | 3.2 | 0.00 | 0.00 | 0.00 | 76 | 1035.7 |
| 20260510203956 | 25 | 10 | 1.6 | 1.6 | 0.00 | 0.00 | 0.00 | 73 | 1036.0 |
| 20260510203454 | 25 | 18 | 0.0 | 0.0 | 0.00 | 0.00 | 0.00 | 74 | 1035.8 |
| 20260510202949 | 25 | 20 | 0.0 | 0.0 | 0.00 | 0.00 | 0.00 | 72 | 1035.8 |
| 20260510202445 | 26 | 343 | 1.6 | 3.2 | 0.00 | 0.00 | 0.00 | 69 | 1035.8 |
| 20260510201942 | 26 | 9 | 0.0 | 0.0 | 0.00 | 0.00 | 0.00 | 68 | 1036.2 |
| 20260510201439 | 25 | 18 | 0.0 | 0.0 | 0.00 | 0.00 | 0.00 | 72 | 1036.0 |
| 20260510200936 | 25 | 22 | 0.0 | 0.0 | 0.00 | 0.00 | 0.00 | 71 | 1036.0 |
| 20260510200430 | 26 | 12 | 0.0 | 0.0 | 0.00 | 0.00 | 0.00 | 66 | 1036.0 |
| 20260510195924 | 26 | 56 | 0.0 | 0.0 | 0.00 | 0.00 | 0.00 | 65 | 1036.2 |
| 20260510195422 | 25 | 346 | 0.0 | 0.0 | 0.00 | 0.00 | 0.00 | 74 | 1036.1 |
| 20260510194917 | 25 | 25 | 0.0 | 0.0 | 0.00 | 0.00 | 0.00 | 72 | 1036.1 |
| 20260510194413 | 25 | 353 | 1.6 | 1.6 | 0.00 | 0.00 | 0.00 | 76 | 1036.2 |
| 20260510193909 | 25 | 46 | 0.0 | 0.0 | 0.00 | 0.00 | 0.00 | 74 | 1036.2 |
| 20260510193404 | 25 | 179 | 0.0 | 1.6 | 0.00 | 0.00 | 0.00 | 71 | 1036.3 |
| 20260510192900 | 24 | 340 | 0.0 | 0.0 | 0.00 | 0.00 | 0.00 | 78 | 1036.1 |
| 20260510192354 | 24 | 19 | 0.0 | 0.0 | 0.00 | 0.00 | 0.00 | 76 | 1036.3 |
| 20260510191850 | 24 | 358 | 0.0 | 0.0 | 0.00 | 0.00 | 0.00 | 73 | 1036.4 |
| 20260510191347 | 25 | 23 | 0.0 | 0.0 | 0.00 | 0.00 | 0.00 | 72 | 1036.5 |
| 20260510190844 | 25 | 9 | 0.0 | 0.0 | 0.00 | 0.00 | 0.00 | 71 | 1036.3 |
| 20260510190342 | 25 | 14 | 0.0 | 0.0 | 0.00 | 0.00 | 0.00 | 70 | 1036.3 |
| 20260510185838 | 25 | 30 | 0.0 | 0.0 | 0.00 | 0.00 | 0.00 | 69 | 1036.6 |
| 20260510185336 | 23 | 10 | 0.0 | 0.0 | 0.00 | 0.00 | 0.00 | 76 | 1036.6 |
| 20260510184833 | 23 | 343 | 1.6 | 1.6 | 0.00 | 0.00 | 0.00 | 78 | 1036.6 |
| 20260510184330 | 23 | 351 | 3.2 | 3.2 | 0.00 | 0.00 | 0.00 | 77 | 1036.7 |
| 20260510183829 | 23 | 148 | 1.6 | 1.6 | 0.00 | 0.00 | 0.00 | 75 | 1036.9 |
| 20260510183325 | 23 | 330 | 6.4 | 6.4 | 0.00 | 0.00 | 0.00 | 76 | 1036.7 |
| 20260510182821 | 23 | 36 | 0.0 | 1.6 | 0.00 | 0.00 | 0.00 | 79 | 1037.0 |
| 20260510182318 | 23 | 284 | 1.6 | 3.2 | 0.00 | 0.00 | 0.00 | 78 | 1036.9 |
| 20260510181814 | 23 | 333 | 4.8 | 4.8 | 0.00 | 0.00 | 0.00 | 78 | 1036.8 |
| 20260510181311 | 23 | 11 | 0.0 | 0.0 | 0.00 | 0.00 | 0.00 | 82 | 1037.0 |
| 20260510180807 | 22 | 20 | 0.0 | 0.0 | 0.00 | 0.00 | 0.00 | 87 | 1036.9 |
| 20260510180305 | 22 | 335 | 3.2 | 4.8 | 0.00 | 0.00 | 0.00 | 84 | 1037.2 |
| 20260510175801 | 22 | 9 | 0.0 | 0.0 | 0.00 | 0.00 | 0.00 | 84 | 1037.0 |
| 20260510175257 | 22 | 14 | 0.0 | 0.0 | 0.00 | 0.00 | 0.00 | 86 | 1037.0 |
| 20260510174754 | 21 | 17 | 0.0 | 1.6 | 0.00 | 0.00 | 0.00 | 87 | 1037.0 |
| 20260510174251 | 20 | 14 | 0.0 | 0.0 | 0.00 | 0.00 | 0.00 | 89 | 1037.1 |
| 20260510173747 | 21 | 14 | 0.0 | 0.0 | 0.00 | 0.00 | 0.00 | 89 | 1037.3 |
| 20260510173243 | 21 | 13 | 0.0 | 0.0 | 0.00 | 0.00 | 0.00 | 87 | 1037.5 |
| 20260510172739 | 21 | 353 | 0.0 | 0.0 | 0.00 | 0.00 | 0.00 | 87 | 1037.5 |
| 20260510172235 | 20 | 146 | 0.0 | 0.0 | 0.00 | 0.00 | 0.00 | 87 | 1037.4 |
| 20260510171732 | 20 | 80 | 0.0 | 1.6 | 0.00 | 0.00 | 0.00 | 88 | 1037.6 |
| 20260510171229 | 20 | 6 | 0.0 | 0.0 | 0.00 | 0.00 | 0.00 | 90 | 1037.8 |
| 20260510170726 | 20 | 5 | 0.0 | 0.0 | 0.00 | 0.00 | 0.00 | 90 | 1037.8 |
| 20260510170222 | 20 | 359 | 0.0 | 0.0 | 0.00 | 0.00 | 0.00 | 91 | 1037.7 |
| 20260510165718 | 20 | 1 | 0.0 | 0.0 | 0.00 | 0.00 | 0.00 | 90 | 1037.8 |
| 20260510165214 | 20 | 1 | 0.0 | 0.0 | 0.00 | 0.00 | 0.00 | 90 | 1037.8 |
| 20260510164712 | 20 | 346 | 0.0 | 0.0 | 0.00 | 0.00 | 0.00 | 91 | 1037.9 |
| 20260510164209 | 20 | 347 | 0.0 | 0.0 | 0.00 | 0.00 | 0.00 | 91 | 1037.9 |
| 20260510163704 | 20 | 347 | 0.0 | 0.0 | 0.00 | 0.00 | 0.00 | 92 | 1037.8 |
| 20260510163200 | 20 | 347 | 0.0 | 0.0 | 0.00 | 0.00 | 0.00 | 92 | 1037.5 |
| 20260510162700 | 20 | 347 | 0.0 | 0.0 | 0.00 | 0.00 | 0.00 | 92 | 1037.4 |
| 20260510162157 | 20 | 346 | 0.0 | 0.0 | 0.00 | 0.00 | 0.00 | 91 | 1037.8 |
| 20260510161652 | 20 | 352 | 0.0 | 0.0 | 0.00 | 0.00 | 0.00 | 93 | 1037.6 |
| 20260510161149 | 20 | 353 | 0.0 | 0.0 | 0.00 | 0.00 | 0.00 | 93 | 1037.7 |
| 20260510160646 | 20 | 27 | 0.0 | 0.0 | 0.00 | 0.00 | 0.00 | 93 | 1037.6 |
| 20260510160142 | 19 | 27 | 0.0 | 0.0 | 0.00 | 0.00 | 0.00 | 93 | 1037.6 |
| 20260510155638 | 19 | 27 | 0.0 | 0.0 | 0.00 | 0.00 | 0.00 | 93 | 1037.7 |
| 20260510155134 | 19 | 27 | 0.0 | 0.0 | 0.00 | 0.00 | 0.00 | 94 | 1037.7 |
| 20260510154629 | 19 | 28 | 0.0 | 0.0 | 0.00 | 0.00 | 0.00 | 94 | 1037.7 |
| 20260510154125 | 19 | 28 | 0.0 | 0.0 | 0.00 | 0.00 | 0.00 | 94 | 1037.7 |
| 20260510153621 | 19 | 26 | 0.0 | 0.0 | 0.00 | 0.00 | 0.00 | 95 | 1037.6 |
| 20260510153117 | 19 | 26 | 0.0 | 0.0 | 0.00 | 0.00 | 0.00 | 95 | 1037.6 |
| 20260510152614 | 19 | 28 | 0.0 | 0.0 | 0.00 | 0.00 | 0.00 | 95 | 1037.5 |
| 20260510152110 | 18 | 65 | 0.0 | 0.0 | 0.00 | 0.00 | 0.00 | 95 | 1037.5 |
| 20260510151607 | 18 | 42 | 0.0 | 0.0 | 0.00 | 0.00 | 0.00 | 97 | 1037.6 |
| 20260510151106 | 18 | 48 | 0.0 | 0.0 | 0.00 | 0.00 | 0.00 | 97 | 1037.6 |
| 20260510150606 | 18 | 185 | 0.0 | 0.0 | 0.00 | 0.00 | 0.00 | 97 | 1037.8 |
| 20260510145558 | 18 | 40 | 0.0 | 0.0 | 0.00 | 0.00 | 0.00 | 99 | 1037.5 |
| 20260510145055 | 18 | 150 | 0.0 | 0.0 | 0.00 | 0.00 | 0.00 | 99 | 1037.5 |
| 20260510144551 | 18 | 56 | 0.0 | 0.0 | 0.00 | 0.00 | 0.00 | 99 | 1037.5 |
| 20260510144047 | 18 | 330 | 0.0 | 0.0 | 0.00 | 0.00 | 0.00 | 99 | 1037.7 |
| 20260510143543 | 18 | 334 | 0.0 | 0.0 | 0.00 | 0.00 | 0.00 | 99 | 1037.5 |
| 20260510143039 | 17 | 334 | 0.0 | 0.0 | 0.00 | 0.00 | 0.00 | 99 | 1037.5 |
| 20260510142536 | 17 | 334 | 0.0 | 0.0 | 0.00 | 0.00 | 0.00 | 99 | 1037.5 |
| 20260510142033 | 17 | 334 | 0.0 | 0.0 | 0.00 | 0.00 | 0.00 | 99 | 1037.5 |
| 20260510141530 | 17 | 334 | 0.0 | 0.0 | 0.00 | 0.00 | 0.00 | 99 | 1037.4 |
| 20260510141027 | 17 | 334 | 0.0 | 0.0 | 0.00 | 0.00 | 0.00 | 99 | 1037.5 |
| 20260510140523 | 17 | 334 | 0.0 | 0.0 | 0.00 | 0.00 | 0.00 | 99 | 1037.4 |
| 20260510140023 | 17 | 334 | 0.0 | 0.0 | 0.00 | 0.00 | 0.00 | 99 | 1037.8 |
| 20260510135518 | 17 | 334 | 0.0 | 0.0 | 0.00 | 0.00 | 0.00 | 99 | 1037.5 |
| 20260510135015 | 17 | 334 | 0.0 | 0.0 | 0.00 | 0.00 | 0.00 | 99 | 1037.5 |
| 20260510134513 | 17 | 334 | 0.0 | 0.0 | 0.00 | 0.00 | 0.00 | 99 | 1037.5 |
| 20260510134009 | 17 | 334 | 0.0 | 0.0 | 0.00 | 0.00 | 0.00 | 99 | 1037.5 |
| 20260510133505 | 17 | 334 | 0.0 | 0.0 | 0.00 | 0.00 | 0.00 | 99 | 1037.3 |
| 20260510133001 | 17 | 334 | 0.0 | 0.0 | 0.00 | 0.00 | 0.00 | 99 | 1037.2 |
| 20260510132458 | 17 | 334 | 0.0 | 0.0 | 0.00 | 0.00 | 0.00 | 99 | 1037.3 |
| 20260510131955 | 17 | 334 | 0.0 | 0.0 | 0.00 | 0.00 | 0.00 | 99 | 1037.1 |
| 20260510131453 | 17 | 334 | 0.0 | 0.0 | 0.00 | 0.00 | 0.00 | 99 | 1037.1 |
| 20260510130950 | 17 | 334 | 0.0 | 0.0 | 0.00 | 0.00 | 0.00 | 99 | 1037.1 |
| 20260510130446 | 17 | 334 | 0.0 | 0.0 | 0.00 | 0.00 | 0.00 | 99 | 1037.0 |
| 20260510125943 | 17 | 334 | 0.0 | 0.0 | 0.00 | 0.00 | 0.00 | 99 | 1037.0 |
| 20260510125439 | 17 | 334 | 0.0 | 0.0 | 0.00 | 0.00 | 0.00 | 99 | 1037.0 |
| 20260510124936 | 17 | 334 | 0.0 | 0.0 | 0.00 | 0.00 | 0.00 | 99 | 1037.0 |
| 20260510124432 | 17 | 334 | 0.0 | 0.0 | 0.00 | 0.00 | 0.00 | 99 | 1037.2 |
| 20260510123930 | 17 | 334 | 0.0 | 0.0 | 0.00 | 0.00 | 0.00 | 99 | 1037.0 |
| 20260510123425 | 17 | 334 | 0.0 | 0.0 | 0.00 | 0.00 | 0.00 | 99 | 1036.8 |
| 20260510122921 | 17 | 334 | 0.0 | 0.0 | 0.00 | 0.00 | 0.00 | 99 | 1036.8 |
| 20260510122417 | 17 | 334 | 0.0 | 0.0 | 0.00 | 0.00 | 0.00 | 99 | 1036.7 |
| 20260510121913 | 17 | 334 | 0.0 | 0.0 | 0.00 | 0.00 | 0.00 | 99 | 1036.6 |
| 20260510121410 | 17 | 334 | 0.0 | 0.0 | 0.00 | 0.00 | 0.00 | 99 | 1036.6 |
| 20260510120908 | 17 | 334 | 0.0 | 0.0 | 0.00 | 0.00 | 0.00 | 99 | 1036.6 |
| 20260510120405 | 17 | 334 | 0.0 | 0.0 | 0.00 | 0.00 | 0.00 | 99 | 1036.4 |
| 20260510115900 | 17 | 334 | 0.0 | 0.0 | 0.00 | 0.00 | 0.00 | 99 | 1036.1 |
| 20260510115352 | 17 | 335 | 0.0 | 0.0 | 0.00 | 0.00 | 0.00 | 99 | 1036.1 |
| 20260510114848 | 17 | 335 | 0.0 | 0.0 | 0.00 | 0.00 | 0.00 | 99 | 1036.4 |
| 20260510114346 | 17 | 336 | 0.0 | 0.0 | 0.00 | 0.00 | 0.00 | 99 | 1035.9 |
| 20260510113846 | 17 | 336 | 0.0 | 0.0 | 0.00 | 0.00 | 0.00 | 99 | 1035.9 |
| 20260510113342 | 17 | 337 | 0.0 | 0.0 | 0.00 | 0.00 | 0.00 | 99 | 1035.9 |
| 20260510112839 | 17 | 337 | 0.0 | 0.0 | 0.00 | 0.00 | 0.00 | 99 | 1035.7 |
| 20260510112336 | 17 | 337 | 0.0 | 0.0 | 0.00 | 0.00 | 0.00 | 99 | 1035.3 |
| 20260510111832 | 17 | 337 | 0.0 | 0.0 | 0.00 | 0.00 | 0.00 | 99 | 1035.4 |
| 20260510111329 | 17 | 337 | 0.0 | 0.0 | 0.00 | 0.00 | 0.00 | 99 | 1035.4 |
| 20260510110828 | 17 | 337 | 0.0 | 0.0 | 0.00 | 0.00 | 0.00 | 99 | 1035.2 |
| 20260510110326 | 17 | 337 | 0.0 | 0.0 | 0.00 | 0.00 | 0.00 | 99 | 1035.3 |
| 20260510105821 | 17 | 337 | 0.0 | 0.0 | 0.00 | 0.00 | 0.00 | 99 | 1035.1 |
| 20260510105316 | 17 | 337 | 0.0 | 0.0 | 0.00 | 0.00 | 0.00 | 99 | 1035.0 |
| 20260510104813 | 17 | 337 | 0.0 | 0.0 | 0.00 | 0.00 | 0.00 | 99 | 1035.0 |
| 20260510104310 | 17 | 337 | 0.0 | 0.0 | 0.00 | 0.00 | 0.00 | 99 | 1034.8 |
| 20260510103806 | 17 | 337 | 0.0 | 0.0 | 0.00 | 0.00 | 0.00 | 99 | 1034.7 |
| 20260510103303 | 17 | 337 | 0.0 | 0.0 | 0.00 | 0.00 | 0.00 | 99 | 1034.8 |
| 20260510102758 | 17 | 337 | 0.0 | 0.0 | 0.00 | 0.00 | 0.00 | 99 | 1034.7 |
| 20260510102254 | 17 | 336 | 0.0 | 0.0 | 0.00 | 0.00 | 0.00 | 99 | 1034.7 |
| 20260510101751 | 17 | 336 | 0.0 | 0.0 | 0.00 | 0.00 | 0.00 | 99 | 1034.5 |
| 20260510101250 | 17 | 336 | 0.0 | 0.0 | 0.00 | 0.00 | 0.00 | 99 | 1034.3 |
| 20260510100745 | 17 | 336 | 0.0 | 0.0 | 0.00 | 0.00 | 0.00 | 99 | 1034.3 |
| 20260510100243 | 17 | 336 | 0.0 | 0.0 | 0.00 | 0.00 | 0.00 | 99 | 1034.3 |
| 20260510095738 | 17 | 336 | 0.0 | 0.0 | 0.00 | 0.00 | 0.00 | 99 | 1034.2 |
| 20260510095234 | 17 | 336 | 0.0 | 0.0 | 0.00 | 0.00 | 0.00 | 99 | 1034.1 |
| 20260510094733 | 17 | 336 | 0.0 | 0.0 | 0.00 | 0.00 | 0.00 | 99 | 1034.2 |
| 20260510094228 | 17 | 336 | 0.0 | 0.0 | 0.00 | 0.00 | 0.00 | 99 | 1034.1 |
| 20260510093724 | 17 | 336 | 0.0 | 0.0 | 0.00 | 0.00 | 0.00 | 99 | 1033.8 |
| 20260510093222 | 17 | 335 | 0.0 | 0.0 | 0.00 | 0.00 | 0.00 | 99 | 1033.8 |
| 20260510092718 | 17 | 335 | 0.0 | 0.0 | 0.00 | 0.00 | 0.00 | 99 | 1034.0 |
| 20260510092214 | 17 | 335 | 0.0 | 0.0 | 0.00 | 0.00 | 0.00 | 99 | 1034.0 |
| 20260510091710 | 17 | 335 | 0.0 | 0.0 | 0.00 | 0.00 | 0.00 | 99 | 1033.7 |
| 20260510091206 | 17 | 335 | 0.0 | 0.0 | 0.00 | 0.00 | 0.00 | 99 | 1033.5 |
| 20260510090703 | 17 | 335 | 0.0 | 0.0 | 0.00 | 0.00 | 0.00 | 99 | 1033.6 |
| 20260510090200 | 17 | 335 | 0.0 | 0.0 | 0.00 | 0.00 | 0.00 | 99 | 1033.6 |
| 20260510085655 | 17 | 335 | 0.0 | 0.0 | 0.00 | 0.00 | 0.00 | 99 | 1033.6 |
| 20260510085150 | 17 | 335 | 0.0 | 0.0 | 0.00 | 0.00 | 0.00 | 99 | 1033.6 |
| 20260510084647 | 17 | 335 | 0.0 | 0.0 | 0.00 | 0.00 | 0.00 | 99 | 1033.3 |
| 20260510084143 | 17 | 335 | 0.0 | 0.0 | 0.00 | 0.00 | 0.00 | 99 | 1033.0 |
| 20260510083640 | 17 | 335 | 0.0 | 0.0 | 0.00 | 0.00 | 0.00 | 99 | 1033.3 |
| 20260510083137 | 17 | 334 | 0.0 | 0.0 | 0.00 | 0.00 | 0.00 | 99 | 1033.2 |
| 20260510082633 | 17 | 334 | 0.0 | 0.0 | 0.00 | 0.00 | 0.00 | 99 | 1033.2 |
| 20260510082129 | 17 | 334 | 0.0 | 0.0 | 0.00 | 0.00 | 0.00 | 99 | 1033.2 |
| 20260510081623 | 17 | 334 | 0.0 | 0.0 | 0.00 | 0.00 | 0.00 | 99 | 1033.2 |
| 20260510081119 | 17 | 334 | 0.0 | 0.0 | 0.00 | 0.00 | 0.00 | 99 | 1033.2 |
| 20260510080614 | 17 | 334 | 0.0 | 0.0 | 0.00 | 0.00 | 0.00 | 99 | 1033.3 |
| 20260510080110 | 17 | 334 | 0.0 | 0.0 | 0.00 | 0.00 | 0.00 | 99 | 1033.3 |
| 20260510075602 | 17 | 334 | 0.0 | 0.0 | 0.00 | 0.00 | 0.00 | 99 | 1032.9 |
| 20260510075058 | 17 | 334 | 0.0 | 0.0 | 0.00 | 0.00 | 0.00 | 99 | 1033.2 |
| 20260510074556 | 17 | 334 | 0.0 | 0.0 | 0.00 | 0.00 | 0.00 | 99 | 1033.1 |
| 20260510074051 | 17 | 334 | 0.0 | 0.0 | 0.00 | 0.00 | 0.00 | 99 | 1033.3 |
| 20260510073548 | 17 | 334 | 0.0 | 0.0 | 0.00 | 0.00 | 0.00 | 99 | 1033.1 |
| 20260510073045 | 17 | 333 | 0.0 | 0.0 | 0.00 | 0.00 | 0.00 | 99 | 1033.3 |
| 20260510072541 | 17 | 333 | 0.0 | 0.0 | 0.00 | 0.00 | 0.00 | 99 | 1033.2 |
| 20260510072037 | 17 | 333 | 0.0 | 0.0 | 0.00 | 0.00 | 0.00 | 99 | 1033.3 |
| 20260510071533 | 17 | 333 | 0.0 | 0.0 | 0.00 | 0.00 | 0.00 | 99 | 1033.2 |
| 20260510071032 | 17 | 333 | 0.0 | 0.0 | 0.00 | 0.00 | 0.00 | 99 | 1033.3 |
| 20260510070528 | 17 | 333 | 0.0 | 0.0 | 0.00 | 0.00 | 0.00 | 99 | 1033.2 |
| 20260510070025 | 17 | 333 | 0.0 | 0.0 | 0.00 | 0.00 | 0.00 | 99 | 1033.3 |
| 20260510065521 | 17 | 333 | 0.0 | 0.0 | 0.00 | 0.00 | 0.00 | 99 | 1033.3 |
| 20260510065017 | 17 | 333 | 0.0 | 0.0 | 0.00 | 0.00 | 0.00 | 99 | 1033.3 |
| 20260510064514 | 17 | 333 | 0.0 | 0.0 | 0.00 | 0.00 | 0.00 | 99 | 1033.2 |
| 20260510064011 | 17 | 333 | 0.0 | 0.0 | 0.00 | 0.00 | 0.00 | 99 | 1033.4 |
| 20260510063508 | 17 | 333 | 0.0 | 0.0 | 0.00 | 0.00 | 0.00 | 99 | 1033.4 |
| 20260510063005 | 17 | 333 | 0.0 | 0.0 | 0.00 | 0.00 | 0.00 | 99 | 1033.7 |
| 20260510062501 | 17 | 333 | 0.0 | 0.0 | 0.00 | 0.00 | 0.00 | 99 | 1033.8 |
| 20260510061955 | 17 | 333 | 0.0 | 0.0 | 0.00 | 0.00 | 0.00 | 99 | 1033.8 |
| 20260510061453 | 17 | 338 | 0.0 | 0.0 | 0.00 | 0.00 | 0.00 | 99 | 1033.9 |
| 20260510060949 | 17 | 340 | 0.0 | 0.0 | 0.00 | 0.00 | 0.00 | 99 | 1033.5 |
| 20260510060446 | 17 | 340 | 0.0 | 0.0 | 0.00 | 0.00 | 0.00 | 99 | 1033.6 |
| 20260510055942 | 17 | 340 | 0.0 | 0.0 | 0.00 | 0.00 | 0.00 | 99 | 1033.4 |
| 20260510055438 | 17 | 340 | 0.0 | 0.0 | 0.00 | 0.00 | 0.00 | 99 | 1033.7 |
| 20260510054937 | 17 | 340 | 0.0 | 0.0 | 0.00 | 0.00 | 0.00 | 99 | 1033.7 |
| 20260510054431 | 17 | 340 | 0.0 | 0.0 | 0.00 | 0.00 | 0.00 | 99 | 1033.6 |
| 20260510053927 | 17 | 340 | 0.0 | 0.0 | 0.00 | 0.00 | 0.00 | 99 | 1033.7 |
| 20260510053422 | 17 | 340 | 0.0 | 0.0 | 0.00 | 0.00 | 0.00 | 99 | 1033.8 |
| 20260510052919 | 17 | 340 | 0.0 | 0.0 | 0.00 | 0.00 | 0.00 | 99 | 1033.7 |
| 20260510052415 | 17 | 339 | 0.0 | 0.0 | 0.00 | 0.00 | 0.00 | 99 | 1033.9 |
| 20260510051911 | 17 | 339 | 0.0 | 0.0 | 0.00 | 0.00 | 0.00 | 99 | 1034.0 |
| 20260510051408 | 17 | 338 | 0.0 | 0.0 | 0.00 | 0.00 | 0.00 | 99 | 1033.8 |
| 20260510050904 | 17 | 347 | 0.0 | 0.0 | 0.00 | 0.00 | 0.00 | 99 | 1034.0 |
| 20260510050401 | 17 | 1 | 0.0 | 0.0 | 0.00 | 0.00 | 0.00 | 99 | 1033.8 |
| 20260510045858 | 17 | 1 | 0.0 | 0.0 | 0.00 | 0.08 | 0.08 | 99 | 1033.8 |
| 20260510045355 | 17 | 1 | 0.0 | 0.0 | 0.00 | 0.08 | 0.08 | 99 | 1033.7 |
| 20260510044852 | 17 | 1 | 0.0 | 0.0 | 0.00 | 0.08 | 0.08 | 99 | 1033.8 |
| 20260510044349 | 17 | 1 | 0.0 | 0.0 | 0.00 | 0.08 | 0.08 | 99 | 1033.9 |
| 20260510043845 | 17 | 1 | 0.0 | 0.0 | 0.00 | 0.08 | 0.08 | 99 | 1033.7 |
| 20260510043341 | 17 | 1 | 0.0 | 0.0 | 0.00 | 0.08 | 0.08 | 99 | 1033.7 |
| 20260510042839 | 17 | 1 | 0.0 | 0.0 | 0.00 | 0.08 | 0.08 | 99 | 1033.7 |
| 20260510042335 | 17 | 1 | 0.0 | 0.0 | 0.00 | 0.08 | 0.08 | 99 | 1033.8 |
| 20260510041831 | 17 | 1 | 0.0 | 0.0 | 0.00 | 0.08 | 0.08 | 99 | 1033.9 |
| 20260510041329 | 17 | 1 | 0.0 | 0.0 | 0.00 | 0.08 | 0.08 | 99 | 1033.9 |
| 20260510040826 | 17 | 1 | 0.0 | 0.0 | 0.00 | 0.08 | 0.08 | 99 | 1034.0 |
| 20260510040323 | 17 | 1 | 0.0 | 0.0 | 0.00 | 0.08 | 0.08 | 99 | 1033.9 |
| 20260510035818 | 17 | 1 | 0.0 | 0.0 | 0.00 | 0.08 | 0.08 | 99 | 1034.1 |
| 20260510035314 | 17 | 1 | 0.0 | 0.0 | 0.00 | 0.08 | 0.08 | 99 | 1033.9 |
| 20260510034810 | 17 | 1 | 0.0 | 0.0 | 0.00 | 0.08 | 0.08 | 99 | 1034.2 |
| 20260510034308 | 17 | 1 | 0.0 | 0.0 | 0.00 | 0.08 | 0.08 | 99 | 1034.1 |
| 20260510033804 | 17 | 1 | 0.0 | 0.0 | 0.00 | 0.08 | 0.08 | 99 | 1034.2 |
| 20260510033301 | 17 | 1 | 0.0 | 0.0 | 0.00 | 0.08 | 0.08 | 99 | 1034.0 |
| 20260510032757 | 18 | 1 | 0.0 | 0.0 | 0.00 | 0.08 | 0.08 | 99 | 1034.2 |
| 20260510032254 | 18 | 1 | 0.0 | 0.0 | 0.00 | 0.08 | 0.08 | 99 | 1034.4 |
| 20260510031750 | 18 | 1 | 0.0 | 0.0 | 0.00 | 0.08 | 0.08 | 99 | 1034.2 |
| 20260510031245 | 18 | 1 | 0.0 | 0.0 | 0.00 | 0.08 | 0.08 | 99 | 1034.1 |
| 20260510030744 | 18 | 1 | 0.0 | 0.0 | 0.00 | 0.08 | 0.08 | 99 | 1034.1 |
| 20260510030237 | 18 | 1 | 0.0 | 0.0 | 0.00 | 0.08 | 0.08 | 99 | 1033.9 |
| 20260510025734 | 18 | 1 | 0.0 | 0.0 | 0.00 | 0.08 | 0.08 | 98 | 1034.0 |
| 20260510025231 | 18 | 1 | 0.0 | 0.0 | 0.00 | 0.08 | 0.08 | 98 | 1034.0 |
| 20260510024722 | 18 | 1 | 0.0 | 0.0 | 0.00 | 0.08 | 0.08 | 98 | 1033.9 |
| 20260510024219 | 18 | 1 | 0.0 | 0.0 | 0.00 | 0.08 | 0.08 | 98 | 1034.1 |
| 20260510023714 | 18 | 1 | 0.0 | 0.0 | 0.00 | 0.08 | 0.08 | 98 | 1034.1 |
| 20260510023212 | 18 | 1 | 0.0 | 0.0 | 0.00 | 0.08 | 0.08 | 98 | 1034.0 |
| 20260510022707 | 18 | 1 | 0.0 | 0.0 | 0.00 | 0.08 | 0.08 | 98 | 1034.0 |
| 20260510022156 | 18 | 1 | 0.0 | 0.0 | 0.00 | 0.08 | 0.08 | 98 | 1033.8 |
| 20260510021652 | 18 | 1 | 0.0 | 0.0 | 0.00 | 0.08 | 0.08 | 98 | 1033.5 |
| 20260510021149 | 18 | 1 | 0.0 | 0.0 | 0.00 | 0.08 | 0.08 | 98 | 1033.5 |
| 20260510020644 | 18 | 1 | 0.0 | 0.0 | 0.00 | 0.08 | 0.08 | 98 | 1033.5 |
| 20260510020140 | 18 | 1 | 0.0 | 0.0 | 0.00 | 0.08 | 0.08 | 98 | 1033.5 |
| 20260510015636 | 18 | 1 | 0.0 | 0.0 | 0.00 | 0.08 | 0.08 | 97 | 1033.3 |
| 20260510015133 | 18 | 1 | 0.0 | 0.0 | 0.00 | 0.08 | 0.08 | 97 | 1033.4 |
| 20260510014628 | 18 | 1 | 0.0 | 0.0 | 0.00 | 0.08 | 0.08 | 97 | 1033.4 |
| 20260510014125 | 18 | 1 | 0.0 | 0.0 | 0.00 | 0.08 | 0.08 | 97 | 1033.1 |
| 20260510013619 | 18 | 1 | 0.0 | 0.0 | 0.00 | 0.08 | 0.08 | 97 | 1032.8 |
| 20260510013115 | 18 | 1 | 0.0 | 0.0 | 0.00 | 0.08 | 0.08 | 97 | 1032.8 |
| 20260510012614 | 18 | 1 | 0.0 | 0.0 | 0.00 | 0.08 | 0.08 | 96 | 1032.7 |
| 20260510012111 | 18 | 1 | 0.0 | 0.0 | 0.00 | 0.08 | 0.08 | 96 | 1032.5 |
| 20260510011610 | 18 | 1 | 0.0 | 0.0 | 0.00 | 0.08 | 0.08 | 96 | 1032.6 |
| 20260510011106 | 18 | 1 | 0.0 | 0.0 | 0.00 | 0.08 | 0.08 | 96 | 1032.6 |
| 20260510010603 | 19 | 1 | 0.0 | 0.0 | 0.00 | 0.08 | 0.08 | 95 | 1032.6 |
| 20260510010100 | 19 | 1 | 0.0 | 0.0 | 0.00 | 0.08 | 0.08 | 95 | 1032.4 |
| 20260510005555 | 19 | 1 | 0.0 | 0.0 | 0.00 | 0.08 | 0.08 | 95 | 1032.4 |
| 20260510005053 | 19 | 1 | 0.0 | 0.0 | 0.00 | 0.08 | 0.08 | 95 | 1032.4 |
| 20260510004551 | 19 | 1 | 0.0 | 0.0 | 0.00 | 0.08 | 0.08 | 95 | 1032.3 |
| 20260510004049 | 19 | 1 | 0.0 | 0.0 | 0.00 | 0.08 | 0.08 | 94 | 1032.2 |
| 20260510003545 | 19 | 1 | 0.0 | 0.0 | 0.00 | 0.08 | 0.08 | 94 | 1032.1 |
| 20260510003041 | 19 | 1 | 0.0 | 0.0 | 0.00 | 0.08 | 0.08 | 94 | 1032.2 |
| 20260510002536 | 19 | 1 | 0.0 | 0.0 | 0.00 | 0.08 | 0.08 | 93 | 1032.1 |
| 20260510002034 | 20 | 1 | 0.0 | 0.0 | 0.00 | 0.08 | 0.08 | 93 | 1032.1 |
| 20260510001531 | 20 | 1 | 0.0 | 0.0 | 0.00 | 0.08 | 0.08 | 93 | 1032.2 |
| 20260510001030 | 20 | 1 | 0.0 | 0.0 | 0.00 | 0.08 | 0.08 | 92 | 1032.2 |
| 20260510000530 | 20 | 2 | 0.0 | 0.0 | 0.00 | 0.08 | 0.08 | 92 | 1032.0 |
| 20260510000027 | 20 | 2 | 0.0 | 0.0 | 0.00 | 0.08 | 0.08 | 92 | 1032.0 |
| 20260509235524 | 20 | 2 | 0.0 | 0.0 | 0.00 | 0.08 | 0.08 | 92 | 1031.9 |
| 20260509235021 | 20 | 2 | 0.0 | 0.0 | 0.00 | 0.08 | 0.08 | 91 | 1031.8 |
| 20260509234517 | 20 | 2 | 0.0 | 0.0 | 0.00 | 0.08 | 0.08 | 91 | 1031.7 |
| 20260509234016 | 20 | 2 | 0.0 | 0.0 | 0.00 | 0.08 | 0.08 | 90 | 1031.6 |
| 20260509233513 | 20 | 2 | 0.0 | 0.0 | 0.00 | 0.08 | 0.08 | 90 | 1031.7 |
| 20260509233010 | 20 | 2 | 0.0 | 0.0 | 0.00 | 0.08 | 0.08 | 90 | 1031.5 |
| 20260509232507 | 20 | 2 | 0.0 | 0.0 | 0.00 | 0.08 | 0.08 | 90 | 1031.3 |
| 20260509232003 | 20 | 2 | 0.0 | 0.0 | 0.00 | 0.08 | 0.08 | 89 | 1031.6 |
| 20260509231459 | 20 | 2 | 0.0 | 0.0 | 0.00 | 0.08 | 0.08 | 88 | 1031.3 |
| 20260509230957 | 20 | 2 | 0.0 | 0.0 | 0.00 | 0.08 | 0.08 | 88 | 1031.4 |
| 20260509230454 | 20 | 2 | 0.0 | 0.0 | 0.00 | 0.08 | 0.08 | 88 | 1031.4 |
| 20260509225950 | 21 | 2 | 0.0 | 0.0 | 0.00 | 0.08 | 0.08 | 88 | 1031.4 |
| 20260509225446 | 21 | 2 | 0.0 | 0.0 | 0.00 | 0.08 | 0.08 | 87 | 1031.2 |